Terminal Aerodrome Forecast
Issued by NWS King Salmon, AK

Home | Current Version | Previous Version | Text Only | Print | Product List | Glossary On
Versions: 1 2 3 4 5 6 7 8 9 10 11 12 13 14 15 16 17 18 19 20 21 22 23 24 25 26 27 28 29 30 31 32 33 34 35 36 37 38 39 40 41 42 43 44 45 46 47 48 49 50
000
FTAK31 PANC 280701 AAA
TAFAKN
TAF AMD
PAKN 280701Z 2807/2906 19008KT P6SM VCSH FEW025 OVC040
      TEMPO 2807/2811 P6SM BKN013 OVC045
     FM281100 19006KT 6SM BR FEW005 BKN025
     FM281300 18005KT 5SM -RA BR OVC010
     FM282100 21006KT P6SM BKN035=

USA.gov is the U.S. government's official web portal to all federal, state and local government web resources and services.